sensor_id;sensor_type;location;lat;lon;timestamp;P1;durP1;ratioP1;P2;durP2;ratioP2
61741;SDS011;47650;49.848;9.620;2023-04-06T00:01:22;12.32;;;10.48;;
61741;SDS011;47650;49.848;9.620;2023-04-06T00:03:47;13.98;;;10.73;;
61741;SDS011;47650;49.848;9.620;2023-04-06T00:06:14;15.80;;;10.73;;
61741;SDS011;47650;49.848;9.620;2023-04-06T00:08:39;12.57;;;9.70;;
61741;SDS011;47650;49.848;9.620;2023-04-06T00:11:06;13.43;;;9.85;;
61741;SDS011;47650;49.848;9.620;2023-04-06T00:13:31;12.70;;;9.50;;
61741;SDS011;47650;49.848;9.620;2023-04-06T00:15:56;12.10;;;9.32;;
61741;SDS011;47650;49.848;9.620;2023-04-06T00:18:22;11.15;;;8.95;;
61741;SDS011;47650;49.848;9.620;2023-04-06T00:20:49;13.23;;;9.73;;
61741;SDS011;47650;49.848;9.620;2023-04-06T00:23:17;12.35;;;8.63;;
61741;SDS011;47650;49.848;9.620;2023-04-06T00:25:44;9.00;;;7.90;;
61741;SDS011;47650;49.848;9.620;2023-04-06T00:28:09;12.75;;;9.45;;
61741;SDS011;47650;49.848;9.620;2023-04-06T00:30:36;13.13;;;8.93;;
61741;SDS011;47650;49.848;9.620;2023-04-06T00:33:03;12.48;;;8.55;;
61741;SDS011;47650;49.848;9.620;2023-04-06T00:35:30;13.57;;;9.02;;
61741;SDS011;47650;49.848;9.620;2023-04-06T00:38:02;12.93;;;8.25;;
61741;SDS011;47650;49.848;9.620;2023-04-06T00:40:28;12.80;;;9.05;;
61741;SDS011;47650;49.848;9.620;2023-04-06T00:42:54;13.45;;;9.00;;
61741;SDS011;47650;49.848;9.620;2023-04-06T00:45:19;11.55;;;9.05;;
61741;SDS011;47650;49.848;9.620;2023-04-06T00:47:45;14.10;;;9.23;;
61741;SDS011;47650;49.848;9.620;2023-04-06T00:50:18;11.23;;;8.50;;
61741;SDS011;47650;49.848;9.620;2023-04-06T00:52:51;11.50;;;8.57;;
61741;SDS011;47650;49.848;9.620;2023-04-06T00:55:18;14.25;;;8.40;;
61741;SDS011;47650;49.848;9.620;2023-04-06T00:57:43;13.77;;;9.38;;
61741;SDS011;47650;49.848;9.620;2023-04-06T01:00:09;10.93;;;8.15;;
61741;SDS011;47650;49.848;9.620;2023-04-06T01:02:36;12.43;;;9.13;;
61741;SDS011;47650;49.848;9.620;2023-04-06T01:05:02;16.20;;;11.15;;
61741;SDS011;47650;49.848;9.620;2023-04-06T01:07:27;12.50;;;9.43;;
61741;SDS011;47650;49.848;9.620;2023-04-06T01:09:56;11.38;;;9.38;;
61741;SDS011;47650;49.848;9.620;2023-04-06T01:12:33;12.02;;;8.88;;
61741;SDS011;47650;49.848;9.620;2023-04-06T01:15:04;13.50;;;8.80;;
61741;SDS011;47650;49.848;9.620;2023-04-06T01:17:31;11.52;;;8.10;;
61741;SDS011;47650;49.848;9.620;2023-04-06T01:19:57;12.57;;;10.40;;
61741;SDS011;47650;49.848;9.620;2023-04-06T01:22:25;18.70;;;10.40;;
61741;SDS011;47650;49.848;9.620;2023-04-06T01:24:58;13.38;;;10.45;;
61741;SDS011;47650;49.848;9.620;2023-04-06T01:27:23;13.48;;;9.32;;
61741;SDS011;47650;49.848;9.620;2023-04-06T01:29:50;12.95;;;9.23;;
61741;SDS011;47650;49.848;9.620;2023-04-06T01:32:17;14.57;;;9.85;;
61741;SDS011;47650;49.848;9.620;2023-04-06T01:34:42;12.52;;;9.57;;
61741;SDS011;47650;49.848;9.620;2023-04-06T01:37:07;12.73;;;8.80;;
61741;SDS011;47650;49.848;9.620;2023-04-06T01:39:33;12.43;;;9.55;;
61741;SDS011;47650;49.848;9.620;2023-04-06T01:42:06;11.45;;;9.65;;
61741;SDS011;47650;49.848;9.620;2023-04-06T01:44:32;16.70;;;11.23;;
61741;SDS011;47650;49.848;9.620;2023-04-06T01:46:58;12.68;;;9.00;;
61741;SDS011;47650;49.848;9.620;2023-04-06T01:49:23;14.25;;;9.75;;
61741;SDS011;47650;49.848;9.620;2023-04-06T01:51:50;13.73;;;9.45;;
61741;SDS011;47650;49.848;9.620;2023-04-06T01:54:15;14.13;;;9.43;;
61741;SDS011;47650;49.848;9.620;2023-04-06T01:56:42;13.20;;;9.45;;
61741;SDS011;47650;49.848;9.620;2023-04-06T01:59:08;12.35;;;10.15;;
61741;SDS011;47650;49.848;9.620;2023-04-06T02:01:33;12.70;;;9.95;;
61741;SDS011;47650;49.848;9.620;2023-04-06T02:03:59;13.63;;;9.23;;
61741;SDS011;47650;49.848;9.620;2023-04-06T02:06:25;14.00;;;9.77;;
61741;SDS011;47650;49.848;9.620;2023-04-06T02:08:52;12.52;;;9.82;;
61741;SDS011;47650;49.848;9.620;2023-04-06T02:11:20;15.52;;;10.55;;
61741;SDS011;47650;49.848;9.620;2023-04-06T02:13:47;12.13;;;9.55;;
61741;SDS011;47650;49.848;9.620;2023-04-06T02:16:13;16.08;;;10.65;;
61741;SDS011;47650;49.848;9.620;2023-04-06T02:18:39;14.20;;;10.65;;
61741;SDS011;47650;49.848;9.620;2023-04-06T02:21:06;12.52;;;10.38;;
61741;SDS011;47650;49.848;9.620;2023-04-06T02:23:33;14.23;;;10.35;;
61741;SDS011;47650;49.848;9.620;2023-04-06T02:25:59;16.63;;;10.27;;
61741;SDS011;47650;49.848;9.620;2023-04-06T02:28:25;15.52;;;11.95;;
61741;SDS011;47650;49.848;9.620;2023-04-06T02:30:53;13.27;;;9.90;;
61741;SDS011;47650;49.848;9.620;2023-04-06T02:33:18;14.02;;;9.55;;
61741;SDS011;47650;49.848;9.620;2023-04-06T02:35:44;14.18;;;10.80;;
61741;SDS011;47650;49.848;9.620;2023-04-06T02:38:12;15.35;;;10.02;;
61741;SDS011;47650;49.848;9.620;2023-04-06T02:40:48;12.32;;;9.05;;
61741;SDS011;47650;49.848;9.620;2023-04-06T02:43:13;12.30;;;9.25;;
61741;SDS011;47650;49.848;9.620;2023-04-06T02:45:41;13.48;;;10.70;;
61741;SDS011;47650;49.848;9.620;2023-04-06T02:48:08;12.43;;;9.07;;
61741;SDS011;47650;49.848;9.620;2023-04-06T02:50:34;11.27;;;8.55;;
61741;SDS011;47650;49.848;9.620;2023-04-06T02:53:01;14.27;;;10.15;;
61741;SDS011;47650;49.848;9.620;2023-04-06T02:55:26;14.90;;;11.48;;
61741;SDS011;47650;49.848;9.620;2023-04-06T02:57:52;15.50;;;11.27;;
61741;SDS011;47650;49.848;9.620;2023-04-06T03:00:18;14.95;;;10.70;;
61741;SDS011;47650;49.848;9.620;2023-04-06T03:02:48;15.18;;;10.88;;
61741;SDS011;47650;49.848;9.620;2023-04-06T03:05:14;15.10;;;11.65;;
61741;SDS011;47650;49.848;9.620;2023-04-06T03:07:43;13.70;;;9.98;;
61741;SDS011;47650;49.848;9.620;2023-04-06T03:10:19;15.90;;;11.35;;
61741;SDS011;47650;49.848;9.620;2023-04-06T03:12:47;16.85;;;12.25;;
61741;SDS011;47650;49.848;9.620;2023-04-06T03:15:12;13.82;;;10.43;;
61741;SDS011;47650;49.848;9.620;2023-04-06T03:17:44;14.88;;;10.60;;
61741;SDS011;47650;49.848;9.620;2023-04-06T03:20:10;13.13;;;10.30;;
61741;SDS011;47650;49.848;9.620;2023-04-06T03:22:37;14.68;;;10.60;;
61741;SDS011;47650;49.848;9.620;2023-04-06T03:25:05;16.77;;;11.50;;
61741;SDS011;47650;49.848;9.620;2023-04-06T03:27:32;15.90;;;10.68;;
61741;SDS011;47650;49.848;9.620;2023-04-06T03:30:06;13.00;;;10.60;;
61741;SDS011;47650;49.848;9.620;2023-04-06T03:34:59;14.88;;;11.43;;
61741;SDS011;47650;49.848;9.620;2023-04-06T03:37:24;18.67;;;11.52;;
61741;SDS011;47650;49.848;9.620;2023-04-06T03:39:50;13.52;;;10.32;;
61741;SDS011;47650;49.848;9.620;2023-04-06T03:42:15;16.63;;;11.20;;
61741;SDS011;47650;49.848;9.620;2023-04-06T03:44:41;12.65;;;10.55;;
61741;SDS011;47650;49.848;9.620;2023-04-06T03:47:06;15.52;;;12.13;;
61741;SDS011;47650;49.848;9.620;2023-04-06T03:49:33;14.27;;;11.23;;
61741;SDS011;47650;49.848;9.620;2023-04-06T03:51:58;14.00;;;10.52;;
61741;SDS011;47650;49.848;9.620;2023-04-06T03:54:25;15.82;;;11.68;;
61741;SDS011;47650;49.848;9.620;2023-04-06T03:56:56;15.43;;;11.73;;
61741;SDS011;47650;49.848;9.620;2023-04-06T03:59:24;16.60;;;12.35;;
61741;SDS011;47650;49.848;9.620;2023-04-06T04:01:52;19.33;;;12.63;;
61741;SDS011;47650;49.848;9.620;2023-04-06T04:04:20;18.20;;;12.95;;
61741;SDS011;47650;49.848;9.620;2023-04-06T04:06:47;19.17;;;14.40;;
61741;SDS011;47650;49.848;9.620;2023-04-06T04:09:21;20.25;;;13.00;;
61741;SDS011;47650;49.848;9.620;2023-04-06T04:11:47;16.92;;;12.90;;
61741;SDS011;47650;49.848;9.620;2023-04-06T04:14:12;14.15;;;11.15;;
61741;SDS011;47650;49.848;9.620;2023-04-06T04:16:38;14.65;;;12.05;;
61741;SDS011;47650;49.848;9.620;2023-04-06T04:19:04;15.20;;;12.20;;
61741;SDS011;47650;49.848;9.620;2023-04-06T04:21:33;17.50;;;13.30;;
61741;SDS011;47650;49.848;9.620;2023-04-06T04:24:00;13.98;;;11.52;;
61741;SDS011;47650;49.848;9.620;2023-04-06T04:26:27;17.02;;;11.88;;
61741;SDS011;47650;49.848;9.620;2023-04-06T04:28:56;17.15;;;11.82;;
61741;SDS011;47650;49.848;9.620;2023-04-06T04:31:23;14.05;;;11.23;;
61741;SDS011;47650;49.848;9.620;2023-04-06T04:33:51;17.02;;;12.50;;
61741;SDS011;47650;49.848;9.620;2023-04-06T04:36:18;17.55;;;12.77;;
61741;SDS011;47650;49.848;9.620;2023-04-06T04:41:15;14.63;;;11.38;;
61741;SDS011;47650;49.848;9.620;2023-04-06T04:43:42;17.38;;;13.15;;
61741;SDS011;47650;49.848;9.620;2023-04-06T04:46:07;19.52;;;12.95;;
61741;SDS011;47650;49.848;9.620;2023-04-06T04:48:36;16.27;;;12.40;;
61741;SDS011;47650;49.848;9.620;2023-04-06T04:51:01;16.75;;;12.00;;
61741;SDS011;47650;49.848;9.620;2023-04-06T04:53:26;15.23;;;11.77;;
61741;SDS011;47650;49.848;9.620;2023-04-06T04:55:56;20.65;;;13.02;;
61741;SDS011;47650;49.848;9.620;2023-04-06T04:58:30;17.42;;;14.32;;
61741;SDS011;47650;49.848;9.620;2023-04-06T05:00:55;18.17;;;13.75;;
61741;SDS011;47650;49.848;9.620;2023-04-06T05:03:22;18.65;;;14.07;;
61741;SDS011;47650;49.848;9.620;2023-04-06T05:05:56;15.73;;;12.95;;
61741;SDS011;47650;49.848;9.620;2023-04-06T05:08:23;18.05;;;13.20;;
61741;SDS011;47650;49.848;9.620;2023-04-06T05:10:54;16.90;;;13.27;;
61741;SDS011;47650;49.848;9.620;2023-04-06T05:13:20;16.08;;;12.82;;
61741;SDS011;47650;49.848;9.620;2023-04-06T05:15:47;16.92;;;12.60;;
61741;SDS011;47650;49.848;9.620;2023-04-06T05:18:15;15.07;;;12.60;;
61741;SDS011;47650;49.848;9.620;2023-04-06T05:20:42;14.32;;;11.90;;
61741;SDS011;47650;49.848;9.620;2023-04-06T05:23:09;17.95;;;13.55;;
61741;SDS011;47650;49.848;9.620;2023-04-06T05:25:35;17.33;;;13.48;;
61741;SDS011;47650;49.848;9.620;2023-04-06T05:28:03;16.58;;;13.10;;
61741;SDS011;47650;49.848;9.620;2023-04-06T05:30:29;15.90;;;12.98;;
61741;SDS011;47650;49.848;9.620;2023-04-06T05:32:56;16.48;;;13.10;;
61741;SDS011;47650;49.848;9.620;2023-04-06T05:35:21;19.80;;;14.40;;
61741;SDS011;47650;49.848;9.620;2023-04-06T05:37:47;19.58;;;13.02;;
61741;SDS011;47650;49.848;9.620;2023-04-06T05:40:12;19.05;;;13.25;;
61741;SDS011;47650;49.848;9.620;2023-04-06T05:42:43;17.10;;;13.75;;
61741;SDS011;47650;49.848;9.620;2023-04-06T05:45:09;18.10;;;12.48;;
61741;SDS011;47650;49.848;9.620;2023-04-06T05:47:36;20.23;;;13.40;;
61741;SDS011;47650;49.848;9.620;2023-04-06T05:50:03;16.70;;;11.77;;
61741;SDS011;47650;49.848;9.620;2023-04-06T05:52:28;15.82;;;12.63;;
61741;SDS011;47650;49.848;9.620;2023-04-06T05:54:54;14.80;;;11.43;;
61741;SDS011;47650;49.848;9.620;2023-04-06T05:57:20;17.15;;;13.40;;
61741;SDS011;47650;49.848;9.620;2023-04-06T05:59:45;17.48;;;13.27;;
61741;SDS011;47650;49.848;9.620;2023-04-06T06:04:40;15.52;;;12.18;;
61741;SDS011;47650;49.848;9.620;2023-04-06T06:07:05;15.80;;;11.82;;
61741;SDS011;47650;49.848;9.620;2023-04-06T06:09:31;16.35;;;12.80;;
61741;SDS011;47650;49.848;9.620;2023-04-06T06:11:56;15.95;;;13.48;;
61741;SDS011;47650;49.848;9.620;2023-04-06T06:14:22;16.98;;;12.50;;
61741;SDS011;47650;49.848;9.620;2023-04-06T06:16:49;18.10;;;13.85;;
61741;SDS011;47650;49.848;9.620;2023-04-06T06:19:15;14.48;;;12.23;;
61741;SDS011;47650;49.848;9.620;2023-04-06T06:21:40;13.88;;;11.23;;
61741;SDS011;47650;49.848;9.620;2023-04-06T06:24:06;17.50;;;12.32;;
61741;SDS011;47650;49.848;9.620;2023-04-06T06:26:33;19.05;;;12.13;;
61741;SDS011;47650;49.848;9.620;2023-04-06T06:29:11;13.02;;;9.98;;
61741;SDS011;47650;49.848;9.620;2023-04-06T06:31:40;14.77;;;11.32;;
61741;SDS011;47650;49.848;9.620;2023-04-06T06:34:06;16.00;;;10.75;;
61741;SDS011;47650;49.848;9.620;2023-04-06T06:36:31;15.13;;;11.60;;
61741;SDS011;47650;49.848;9.620;2023-04-06T06:41:25;17.90;;;11.70;;
61741;SDS011;47650;49.848;9.620;2023-04-06T06:43:51;14.75;;;11.02;;
61741;SDS011;47650;49.848;9.620;2023-04-06T06:46:16;13.23;;;9.60;;
61741;SDS011;47650;49.848;9.620;2023-04-06T06:48:42;14.85;;;11.02;;
61741;SDS011;47650;49.848;9.620;2023-04-06T06:51:10;14.93;;;10.68;;
61741;SDS011;47650;49.848;9.620;2023-04-06T06:53:37;13.23;;;9.43;;
61741;SDS011;47650;49.848;9.620;2023-04-06T06:56:02;12.27;;;8.85;;
61741;SDS011;47650;49.848;9.620;2023-04-06T06:58:37;13.02;;;8.88;;
61741;SDS011;47650;49.848;9.620;2023-04-06T07:01:10;12.68;;;8.18;;
61741;SDS011;47650;49.848;9.620;2023-04-06T07:03:36;10.93;;;8.65;;
61741;SDS011;47650;49.848;9.620;2023-04-06T07:06:03;15.73;;;9.18;;
61741;SDS011;47650;49.848;9.620;2023-04-06T07:08:39;12.48;;;9.13;;
61741;SDS011;47650;49.848;9.620;2023-04-06T07:11:11;15.23;;;8.40;;
61741;SDS011;47650;49.848;9.620;2023-04-06T07:13:36;10.55;;;7.72;;
61741;SDS011;47650;49.848;9.620;2023-04-06T07:16:02;8.82;;;7.55;;
61741;SDS011;47650;49.848;9.620;2023-04-06T07:18:28;10.35;;;7.82;;
61741;SDS011;47650;49.848;9.620;2023-04-06T07:20:56;12.68;;;9.25;;
61741;SDS011;47650;49.848;9.620;2023-04-06T07:23:23;11.55;;;8.50;;
61741;SDS011;47650;49.848;9.620;2023-04-06T07:25:48;10.48;;;7.97;;
61741;SDS011;47650;49.848;9.620;2023-04-06T07:28:17;8.88;;;7.65;;
61741;SDS011;47650;49.848;9.620;2023-04-06T07:30:45;9.48;;;7.47;;
61741;SDS011;47650;49.848;9.620;2023-04-06T07:33:16;15.63;;;8.07;;
61741;SDS011;47650;49.848;9.620;2023-04-06T07:35:43;13.05;;;8.35;;
61741;SDS011;47650;49.848;9.620;2023-04-06T07:38:14;11.48;;;7.85;;
61741;SDS011;47650;49.848;9.620;2023-04-06T07:40:40;12.23;;;8.73;;
61741;SDS011;47650;49.848;9.620;2023-04-06T07:43:09;11.80;;;8.77;;
61741;SDS011;47650;49.848;9.620;2023-04-06T07:45:36;11.38;;;7.72;;
61741;SDS011;47650;49.848;9.620;2023-04-06T07:48:04;12.55;;;8.60;;
61741;SDS011;47650;49.848;9.620;2023-04-06T07:50:29;10.73;;;8.30;;
61741;SDS011;47650;49.848;9.620;2023-04-06T07:52:54;9.82;;;8.75;;
61741;SDS011;47650;49.848;9.620;2023-04-06T07:55:22;12.35;;;8.35;;
61741;SDS011;47650;49.848;9.620;2023-04-06T07:57:55;14.68;;;8.65;;
61741;SDS011;47650;49.848;9.620;2023-04-06T08:00:27;13.00;;;8.18;;
61741;SDS011;47650;49.848;9.620;2023-04-06T08:02:53;10.98;;;8.30;;
61741;SDS011;47650;49.848;9.620;2023-04-06T08:05:19;9.55;;;7.35;;
61741;SDS011;47650;49.848;9.620;2023-04-06T08:07:45;13.23;;;9.02;;
61741;SDS011;47650;49.848;9.620;2023-04-06T08:10:10;9.57;;;7.97;;
61741;SDS011;47650;49.848;9.620;2023-04-06T08:12:36;10.13;;;8.85;;
61741;SDS011;47650;49.848;9.620;2023-04-06T08:15:03;9.40;;;8.02;;
61741;SDS011;47650;49.848;9.620;2023-04-06T08:17:31;11.43;;;8.85;;
61741;SDS011;47650;49.848;9.620;2023-04-06T08:20:00;13.80;;;9.27;;
61741;SDS011;47650;49.848;9.620;2023-04-06T08:22:28;11.60;;;9.20;;
61741;SDS011;47650;49.848;9.620;2023-04-06T08:24:56;10.35;;;8.23;;
61741;SDS011;47650;49.848;9.620;2023-04-06T08:27:21;12.13;;;9.45;;
61741;SDS011;47650;49.848;9.620;2023-04-06T08:29:47;13.35;;;9.25;;
61741;SDS011;47650;49.848;9.620;2023-04-06T08:32:14;10.93;;;8.60;;
61741;SDS011;47650;49.848;9.620;2023-04-06T08:34:39;9.93;;;8.93;;
61741;SDS011;47650;49.848;9.620;2023-04-06T08:37:07;10.23;;;8.27;;
61741;SDS011;47650;49.848;9.620;2023-04-06T08:39:32;12.13;;;9.00;;
61741;SDS011;47650;49.848;9.620;2023-04-06T08:42:10;10.60;;;9.48;;
61741;SDS011;47650;49.848;9.620;2023-04-06T08:44:42;11.93;;;9.07;;
61741;SDS011;47650;49.848;9.620;2023-04-06T08:47:09;13.77;;;9.07;;
61741;SDS011;47650;49.848;9.620;2023-04-06T08:49:34;10.45;;;9.45;;
61741;SDS011;47650;49.848;9.620;2023-04-06T08:52:05;12.10;;;9.13;;
61741;SDS011;47650;49.848;9.620;2023-04-06T08:54:42;9.98;;;9.07;;
61741;SDS011;47650;49.848;9.620;2023-04-06T08:57:08;12.68;;;10.10;;
61741;SDS011;47650;49.848;9.620;2023-04-06T08:59:36;14.57;;;10.07;;
61741;SDS011;47650;49.848;9.620;2023-04-06T09:02:03;12.38;;;10.35;;
61741;SDS011;47650;49.848;9.620;2023-04-06T09:04:36;11.25;;;9.10;;
61741;SDS011;47650;49.848;9.620;2023-04-06T09:07:02;11.88;;;10.68;;
61741;SDS011;47650;49.848;9.620;2023-04-06T09:09:27;11.90;;;10.68;;
61741;SDS011;47650;49.848;9.620;2023-04-06T09:11:52;12.35;;;10.80;;
61741;SDS011;47650;49.848;9.620;2023-04-06T09:14:40;11.35;;;10.38;;
61741;SDS011;47650;49.848;9.620;2023-04-06T09:17:06;12.73;;;11.43;;
61741;SDS011;47650;49.848;9.620;2023-04-06T09:19:33;12.32;;;11.10;;
61741;SDS011;47650;49.848;9.620;2023-04-06T09:22:01;12.63;;;11.40;;
61741;SDS011;47650;49.848;9.620;2023-04-06T09:27:16;13.05;;;12.02;;
61741;SDS011;47650;49.848;9.620;2023-04-06T09:29:43;14.45;;;13.10;;
61741;SDS011;47650;49.848;9.620;2023-04-06T09:32:11;14.30;;;13.07;;
61741;SDS011;47650;49.848;9.620;2023-04-06T09:34:41;12.40;;;11.18;;
61741;SDS011;47650;49.848;9.620;2023-04-06T09:37:20;12.55;;;11.20;;
61741;SDS011;47650;49.848;9.620;2023-04-06T09:39:45;16.70;;;10.73;;
61741;SDS011;47650;49.848;9.620;2023-04-06T09:42:22;11.75;;;10.75;;
61741;SDS011;47650;49.848;9.620;2023-04-06T09:44:56;12.10;;;10.85;;
61741;SDS011;47650;49.848;9.620;2023-04-06T09:47:21;11.82;;;10.80;;
61741;SDS011;47650;49.848;9.620;2023-04-06T09:49:50;11.55;;;10.45;;
61741;SDS011;47650;49.848;9.620;2023-04-06T09:52:18;11.35;;;10.43;;
61741;SDS011;47650;49.848;9.620;2023-04-06T09:54:47;12.15;;;11.02;;
61741;SDS011;47650;49.848;9.620;2023-04-06T09:59:48;11.10;;;10.17;;
61741;SDS011;47650;49.848;9.620;2023-04-06T10:02:27;11.07;;;9.88;;
61741;SDS011;47650;49.848;9.620;2023-04-06T10:05:01;15.25;;;11.73;;
61741;SDS011;47650;49.848;9.620;2023-04-06T10:07:31;10.73;;;9.82;;
61741;SDS011;47650;49.848;9.620;2023-04-06T10:09:57;11.23;;;10.23;;
61741;SDS011;47650;49.848;9.620;2023-04-06T10:12:25;10.20;;;9.30;;
61741;SDS011;47650;49.848;9.620;2023-04-06T10:14:52;10.50;;;9.38;;
61741;SDS011;47650;49.848;9.620;2023-04-06T10:17:19;9.77;;;8.88;;
61741;SDS011;47650;49.848;9.620;2023-04-06T10:22:55;11.25;;;10.15;;
61741;SDS011;47650;49.848;9.620;2023-04-06T10:25:28;10.05;;;9.15;;
61741;SDS011;47650;49.848;9.620;2023-04-06T10:30:30;11.32;;;9.85;;
61741;SDS011;47650;49.848;9.620;2023-04-06T10:32:56;10.32;;;9.43;;
61741;SDS011;47650;49.848;9.620;2023-04-06T10:35:36;12.05;;;10.85;;
61741;SDS011;47650;49.848;9.620;2023-04-06T10:38:03;9.80;;;9.00;;
61741;SDS011;47650;49.848;9.620;2023-04-06T10:40:37;8.25;;;7.50;;
61741;SDS011;47650;49.848;9.620;2023-04-06T10:43:08;10.18;;;9.18;;
61741;SDS011;47650;49.848;9.620;2023-04-06T10:45:41;8.75;;;8.05;;
61741;SDS011;47650;49.848;9.620;2023-04-06T10:50:48;10.15;;;8.88;;
61741;SDS011;47650;49.848;9.620;2023-04-06T10:53:32;10.07;;;9.00;;
61741;SDS011;47650;49.848;9.620;2023-04-06T10:55:59;10.75;;;9.82;;
61741;SDS011;47650;49.848;9.620;2023-04-06T10:58:26;11.07;;;10.15;;
61741;SDS011;47650;49.848;9.620;2023-04-06T11:00:52;11.90;;;10.90;;
61741;SDS011;47650;49.848;9.620;2023-04-06T11:03:19;10.77;;;9.88;;
61741;SDS011;47650;49.848;9.620;2023-04-06T11:05:48;10.98;;;10.07;;
61741;SDS011;47650;49.848;9.620;2023-04-06T11:11:03;11.23;;;10.13;;
61741;SDS011;47650;49.848;9.620;2023-04-06T11:13:45;11.10;;;10.20;;
61741;SDS011;47650;49.848;9.620;2023-04-06T11:16:17;11.40;;;10.40;;
61741;SDS011;47650;49.848;9.620;2023-04-06T11:21:18;10.52;;;9.63;;
61741;SDS011;47650;49.848;9.620;2023-04-06T11:23:49;11.00;;;9.95;;
61741;SDS011;47650;49.848;9.620;2023-04-06T11:26:17;9.30;;;8.60;;
61741;SDS011;47650;49.848;9.620;2023-04-06T11:28:43;10.63;;;9.18;;
61741;SDS011;47650;49.848;9.620;2023-04-06T11:31:10;9.63;;;8.52;;
61741;SDS011;47650;49.848;9.620;2023-04-06T11:33:37;10.45;;;9.50;;
61741;SDS011;47650;49.848;9.620;2023-04-06T11:36:06;9.65;;;8.85;;
61741;SDS011;47650;49.848;9.620;2023-04-06T11:38:32;10.38;;;9.48;;
61741;SDS011;47650;49.848;9.620;2023-04-06T11:40:57;8.85;;;8.07;;
61741;SDS011;47650;49.848;9.620;2023-04-06T11:43:29;9.18;;;8.45;;
61741;SDS011;47650;49.848;9.620;2023-04-06T11:46:01;9.50;;;8.52;;
61741;SDS011;47650;49.848;9.620;2023-04-06T11:48:29;9.95;;;8.88;;
61741;SDS011;47650;49.848;9.620;2023-04-06T11:50:57;8.40;;;7.70;;
61741;SDS011;47650;49.848;9.620;2023-04-06T11:53:23;9.75;;;8.95;;
61741;SDS011;47650;49.848;9.620;2023-04-06T11:55:49;9.10;;;7.93;;
61741;SDS011;47650;49.848;9.620;2023-04-06T11:58:15;10.07;;;9.00;;
61741;SDS011;47650;49.848;9.620;2023-04-06T12:00:40;9.38;;;8.60;;
61741;SDS011;47650;49.848;9.620;2023-04-06T12:03:10;9.50;;;8.70;;
61741;SDS011;47650;49.848;9.620;2023-04-06T12:05:35;9.80;;;8.80;;
61741;SDS011;47650;49.848;9.620;2023-04-06T12:08:01;10.80;;;9.23;;
61741;SDS011;47650;49.848;9.620;2023-04-06T12:10:27;8.30;;;7.68;;
61741;SDS011;47650;49.848;9.620;2023-04-06T12:12:52;9.67;;;8.83;;
61741;SDS011;47650;49.848;9.620;2023-04-06T12:15:18;10.70;;;9.80;;
61741;SDS011;47650;49.848;9.620;2023-04-06T12:17:43;7.93;;;7.23;;
61741;SDS011;47650;49.848;9.620;2023-04-06T12:20:08;9.67;;;8.83;;
61741;SDS011;47650;49.848;9.620;2023-04-06T12:22:36;8.82;;;8.05;;
61741;SDS011;47650;49.848;9.620;2023-04-06T12:25:02;9.15;;;8.45;;
61741;SDS011;47650;49.848;9.620;2023-04-06T12:29:56;8.25;;;7.55;;
61741;SDS011;47650;49.848;9.620;2023-04-06T12:32:21;9.47;;;8.30;;
61741;SDS011;47650;49.848;9.620;2023-04-06T12:34:46;7.78;;;7.05;;
61741;SDS011;47650;49.848;9.620;2023-04-06T12:37:13;7.70;;;7.00;;
61741;SDS011;47650;49.848;9.620;2023-04-06T12:39:38;10.10;;;7.55;;
61741;SDS011;47650;49.848;9.620;2023-04-06T12:42:06;8.75;;;7.97;;
61741;SDS011;47650;49.848;9.620;2023-04-06T12:44:31;8.20;;;7.40;;
61741;SDS011;47650;49.848;9.620;2023-04-06T12:46:57;7.35;;;6.65;;
61741;SDS011;47650;49.848;9.620;2023-04-06T12:49:23;7.90;;;7.20;;
61741;SDS011;47650;49.848;9.620;2023-04-06T12:51:50;7.85;;;7.03;;
61741;SDS011;47650;49.848;9.620;2023-04-06T12:54:16;7.38;;;6.78;;
61741;SDS011;47650;49.848;9.620;2023-04-06T12:56:42;7.57;;;6.90;;
61741;SDS011;47650;49.848;9.620;2023-04-06T12:59:08;8.13;;;7.43;;
61741;SDS011;47650;49.848;9.620;2023-04-06T13:01:33;7.35;;;6.60;;
61741;SDS011;47650;49.848;9.620;2023-04-06T13:03:58;7.90;;;7.30;;
61741;SDS011;47650;49.848;9.620;2023-04-06T13:06:24;8.40;;;7.03;;
61741;SDS011;47650;49.848;9.620;2023-04-06T13:08:52;7.78;;;7.18;;
61741;SDS011;47650;49.848;9.620;2023-04-06T13:11:18;8.20;;;7.50;;
61741;SDS011;47650;49.848;9.620;2023-04-06T13:13:45;7.18;;;6.63;;
61741;SDS011;47650;49.848;9.620;2023-04-06T13:16:10;8.07;;;7.47;;
61741;SDS011;47650;49.848;9.620;2023-04-06T13:18:36;7.30;;;6.60;;
61741;SDS011;47650;49.848;9.620;2023-04-06T13:21:03;7.75;;;7.07;;
61741;SDS011;47650;49.848;9.620;2023-04-06T13:23:31;6.65;;;5.88;;
61741;SDS011;47650;49.848;9.620;2023-04-06T13:25:58;7.03;;;6.30;;
61741;SDS011;47650;49.848;9.620;2023-04-06T13:28:28;10.13;;;6.30;;
61741;SDS011;47650;49.848;9.620;2023-04-06T13:30:54;7.70;;;7.00;;
61741;SDS011;47650;49.848;9.620;2023-04-06T13:33:20;6.25;;;5.75;;
61741;SDS011;47650;49.848;9.620;2023-04-06T13:35:46;6.50;;;6.05;;
61741;SDS011;47650;49.848;9.620;2023-04-06T13:38:13;7.97;;;7.28;;
61741;SDS011;47650;49.848;9.620;2023-04-06T13:40:44;7.97;;;6.25;;
61741;SDS011;47650;49.848;9.620;2023-04-06T13:43:12;7.53;;;6.25;;
61741;SDS011;47650;49.848;9.620;2023-04-06T13:45:38;7.57;;;6.32;;
61741;SDS011;47650;49.848;9.620;2023-04-06T13:48:04;7.60;;;6.93;;
61741;SDS011;47650;49.848;9.620;2023-04-06T13:50:29;7.00;;;6.15;;
61741;SDS011;47650;49.848;9.620;2023-04-06T13:52:55;9.98;;;5.97;;
61741;SDS011;47650;49.848;9.620;2023-04-06T13:55:22;8.05;;;7.07;;
61741;SDS011;47650;49.848;9.620;2023-04-06T13:57:49;6.72;;;6.13;;
61741;SDS011;47650;49.848;9.620;2023-04-06T14:00:15;6.93;;;6.32;;
61741;SDS011;47650;49.848;9.620;2023-04-06T14:02:40;7.55;;;6.85;;
61741;SDS011;47650;49.848;9.620;2023-04-06T14:05:06;7.05;;;6.35;;
61741;SDS011;47650;49.848;9.620;2023-04-06T14:07:33;7.57;;;6.80;;
61741;SDS011;47650;49.848;9.620;2023-04-06T14:09:59;7.07;;;6.35;;
61741;SDS011;47650;49.848;9.620;2023-04-06T14:12:25;7.43;;;6.40;;
61741;SDS011;47650;49.848;9.620;2023-04-06T14:14:51;7.93;;;7.10;;
61741;SDS011;47650;49.848;9.620;2023-04-06T14:17:21;6.93;;;5.82;;
61741;SDS011;47650;49.848;9.620;2023-04-06T14:22:21;7.25;;;6.05;;
61741;SDS011;47650;49.848;9.620;2023-04-06T14:24:47;7.18;;;6.47;;
61741;SDS011;47650;49.848;9.620;2023-04-06T14:27:12;7.32;;;6.63;;
61741;SDS011;47650;49.848;9.620;2023-04-06T14:29:38;7.80;;;6.63;;
61741;SDS011;47650;49.848;9.620;2023-04-06T14:32:04;8.35;;;7.43;;
61741;SDS011;47650;49.848;9.620;2023-04-06T14:34:29;7.80;;;7.05;;
61741;SDS011;47650;49.848;9.620;2023-04-06T14:36:56;8.50;;;6.53;;
61741;SDS011;47650;49.848;9.620;2023-04-06T14:39:22;6.57;;;5.97;;
61741;SDS011;47650;49.848;9.620;2023-04-06T14:41:47;7.70;;;7.00;;
61741;SDS011;47650;49.848;9.620;2023-04-06T14:44:15;8.15;;;6.97;;
61741;SDS011;47650;49.848;9.620;2023-04-06T14:46:42;7.50;;;6.50;;
61741;SDS011;47650;49.848;9.620;2023-04-06T14:49:08;8.82;;;6.50;;
61741;SDS011;47650;49.848;9.620;2023-04-06T14:51:34;7.15;;;6.00;;
61741;SDS011;47650;49.848;9.620;2023-04-06T14:54:01;6.53;;;5.85;;
61741;SDS011;47650;49.848;9.620;2023-04-06T14:56:30;7.20;;;6.43;;
61741;SDS011;47650;49.848;9.620;2023-04-06T14:58:57;6.35;;;5.72;;
61741;SDS011;47650;49.848;9.620;2023-04-06T15:01:26;9.20;;;6.90;;
61741;SDS011;47650;49.848;9.620;2023-04-06T15:03:53;10.15;;;7.10;;
61741;SDS011;47650;49.848;9.620;2023-04-06T15:06:19;10.13;;;6.60;;
61741;SDS011;47650;49.848;9.620;2023-04-06T15:08:45;7.03;;;6.32;;